Time;durP1;ratioP1;P1;durP2;ratioP2;P2;SDS_P1;SDS_P2;PMS_P1;PMS_P2;Temp;Humidity;BMP_temperature;BMP_pressure;BME280_temperature;BME280_humidity;BME280_pressure;Samples;Min_cycle;Max_cycle;Signal;HPM_P1;HPM_P2
2021/05/02 00:00:22;;;;;;;634.93;596.10;;;7.90;99.90;;;;;;5120967;28;20501;-81
2021/05/02 00:02:48;;;;;;;682.13;641.60;;;7.90;99.90;;;;;;5117188;28;20492;-79
2021/05/02 00:05:17;;;;;;;630.30;592.10;;;7.80;99.90;;;;;;5114738;28;20533;-79
2021/05/02 00:07:45;;;;;;;419.47;393.97;;;7.70;99.90;;;;;;5114561;28;20457;-80
2021/05/02 00:10:12;;;;;;;314.13;294.60;;;7.50;99.90;;;;;;5116114;28;20893;-79
2021/05/02 00:12:39;;;;;;;296.33;277.53;;;7.50;99.90;;;;;;5115578;28;20528;-80
2021/05/02 00:15:08;;;;;;;269.43;251.50;;;7.60;99.90;;;;;;5114590;28;20960;-80
2021/05/02 00:17:37;;;;;;;103.60;67.67;;;7.50;99.90;;;;;;5113567;28;20571;-77
2021/05/02 00:20:05;;;;;;;110.97;92.50;;;7.50;99.90;;;;;;5116257;28;20484;-80
2021/05/02 00:22:33;;;;;;;86.50;32.70;;;7.60;99.90;;;;;;5115710;28;20923;-80
2021/05/02 00:25:01;;;;;;;85.20;24.23;;;7.70;99.90;;;;;;5116265;28;20522;-80
2021/05/02 00:27:28;;;;;;;95.37;53.07;;;7.70;99.90;;;;;;5114403;28;20528;-80
2021/05/02 00:29:55;;;;;;;86.33;21.37;;;7.80;99.90;;;;;;5114454;28;20465;-77
2021/05/02 00:32:22;;;;;;;92.53;32.90;;;7.80;99.90;;;;;;5114230;28;20971;-80
2021/05/02 00:34:50;;;;;;;94.53;39.73;;;7.90;99.90;;;;;;5115215;28;20540;-80
2021/05/02 00:37:17;;;;;;;89.77;28.83;;;7.90;99.90;;;;;;5115068;28;20572;-80
2021/05/02 00:39:44;;;;;;;88.17;31.90;;;8.00;99.90;;;;;;5114531;28;20552;-80
2021/05/02 00:42:18;;;;;;;86.27;25.47;;;8.10;99.90;;;;;;5115596;28;20479;-80
2021/05/02 00:44:48;;;;;;;92.00;28.37;;;8.10;99.90;;;;;;5116651;28;20551;-81
2021/05/02 00:47:16;;;;;;;82.87;27.97;;;8.10;99.90;;;;;;5119840;28;20476;-81
2021/05/02 00:49:48;;;;;;;85.63;29.87;;;8.00;99.90;;;;;;5119082;28;20484;-81
2021/05/02 00:52:20;;;;;;;87.57;34.03;;;8.00;99.90;;;;;;5118871;28;20433;-80
2021/05/02 00:54:48;;;;;;;89.47;31.07;;;8.10;99.90;;;;;;5118583;28;20460;-79
2021/05/02 00:57:23;;;;;;;89.30;45.77;;;8.10;99.90;;;;;;5118510;28;20481;-79
2021/05/02 01:00:00;;;;;;;90.30;42.13;;;8.20;99.90;;;;;;5118208;28;21108;-80
2021/05/02 01:02:29;;;;;;;88.90;35.97;;;8.10;99.90;;;;;;5117804;28;20453;-81
2021/05/02 01:04:58;;;;;;;83.17;27.03;;;7.90;99.90;;;;;;5120580;28;20449;-78
2021/05/02 01:07:28;;;;;;;81.63;22.53;;;7.80;99.90;;;;;;5119461;28;20440;-79
2021/05/02 01:09:59;;;;;;;79.17;29.10;;;7.70;99.90;;;;;;5118594;28;20520;-81
2021/05/02 01:12:29;;;;;;;84.20;24.50;;;7.50;99.90;;;;;;5118038;28;20480;-81
2021/05/02 01:14:59;;;;;;;77.20;23.00;;;7.40;99.90;;;;;;5118311;28;20506;-80
2021/05/02 01:17:27;;;;;;;79.57;28.40;;;7.30;99.90;;;;;;5118024;28;20484;-81
2021/05/02 01:19:54;;;;;;;83.53;32.40;;;7.20;99.90;;;;;;5117908;28;20484;-80
2021/05/02 01:22:22;;;;;;;74.37;24.87;;;7.10;99.90;;;;;;5118412;28;20928;-81
2021/05/02 01:24:52;;;;;;;74.77;23.23;;;7.00;99.90;;;;;;5118299;28;20545;-82
2021/05/02 01:27:26;;;;;;;75.60;22.53;;;6.90;99.90;;;;;;5118029;28;20469;-80
2021/05/02 01:29:53;;;;;;;77.03;35.47;;;6.80;99.90;;;;;;5118627;28;20913;-81
2021/05/02 01:32:20;;;;;;;71.23;24.53;;;6.80;99.90;;;;;;5117306;28;20532;-81
2021/05/02 01:34:47;;;;;;;70.10;22.13;;;6.90;99.90;;;;;;5118062;28;20510;-81
2021/05/02 01:37:13;;;;;;;76.07;21.80;;;7.00;99.90;;;;;;5117567;28;21012;-80
2021/05/02 01:39:40;;;;;;;72.30;21.87;;;7.10;99.90;;;;;;5117808;28;20507;-81
2021/05/02 01:42:08;;;;;;;70.77;22.20;;;7.20;99.90;;;;;;5117045;28;20480;-78
2021/05/02 01:44:35;;;;;;;68.60;20.03;;;7.30;99.90;;;;;;5117565;28;20461;-81
2021/05/02 01:47:08;;;;;;;70.23;22.60;;;7.30;99.90;;;;;;5116226;28;20456;-78
2021/05/02 01:49:38;;;;;;;70.83;22.70;;;7.20;99.90;;;;;;5117774;28;20503;-80
2021/05/02 01:52:06;;;;;;;76.27;23.77;;;7.10;99.90;;;;;;5117111;28;21050;-78
2021/05/02 01:54:33;;;;;;;73.40;27.83;;;6.90;99.90;;;;;;5117569;28;20473;-80
2021/05/02 01:57:00;;;;;;;71.10;27.83;;;6.80;99.90;;;;;;5116582;28;20540;-80
2021/05/02 01:59:28;;;;;;;72.17;28.33;;;6.70;99.90;;;;;;5117801;28;20547;-81
2021/05/02 02:01:54;;;;;;;72.57;24.17;;;6.70;99.90;;;;;;5116995;28;20901;-81
2021/05/02 02:04:25;;;;;;;70.70;27.47;;;6.70;99.90;;;;;;5117445;28;20464;-81
2021/05/02 02:06:54;;;;;;;70.37;28.10;;;6.80;99.90;;;;;;5117947;28;20448;-81
2021/05/02 02:09:22;;;;;;;70.17;24.97;;;6.90;99.90;;;;;;5117424;28;20458;-81
2021/05/02 02:11:52;;;;;;;70.57;29.20;;;7.00;99.90;;;;;;5116855;28;20537;-81
2021/05/02 02:14:18;;;;;;;73.40;27.40;;;7.00;99.90;;;;;;5117862;28;20496;-80
2021/05/02 02:16:46;;;;;;;73.37;35.07;;;7.10;99.90;;;;;;5127056;28;20983;-81
2021/05/02 02:19:12;;;;;;;66.87;25.07;;;7.10;99.90;;;;;;5133299;28;20445;-80
2021/05/02 02:21:42;;;;;;;66.87;23.00;;;7.10;99.90;;;;;;5129960;22;20534;-79
2021/05/02 02:24:11;;;;;;;70.87;27.20;;;7.10;99.90;;;;;;5096744;28;21050;-79
2021/05/02 02:26:48;;;;;;;65.47;22.40;;;7.10;99.90;;;;;;5096804;28;20803;-79
2021/05/02 02:29:16;;;;;;;95.67;38.40;;;7.10;99.90;;;;;;5096306;28;20481;-79
2021/05/02 02:31:46;;;;;;;120.27;48.00;;;6.90;99.90;;;;;;5090432;28;21166;-79
2021/05/02 02:34:14;;;;;;;72.17;28.47;;;7.00;99.90;;;;;;5081477;28;20450;-79
2021/05/02 02:36:42;;;;;;;76.33;27.97;;;6.90;99.90;;;;;;5096383;28;20481;-80
2021/05/02 02:39:08;;;;;;;65.87;25.20;;;7.00;99.90;;;;;;5094975;28;20446;-79
2021/05/02 02:41:38;;;;;;;64.73;23.60;;;7.00;99.90;;;;;;5082475;28;20558;-79
2021/05/02 02:44:09;;;;;;;63.53;20.47;;;7.10;99.90;;;;;;5075792;28;20447;-79
2021/05/02 02:46:41;;;;;;;68.63;25.70;;;7.20;99.90;;;;;;5075671;28;20986;-79
2021/05/02 02:49:10;;;;;;;68.07;27.93;;;7.20;99.90;;;;;;5076224;28;20817;-79
2021/05/02 02:51:39;;;;;;;67.10;29.77;;;7.30;99.90;;;;;;5075236;28;20538;-79
2021/05/02 02:54:10;;;;;;;66.63;27.23;;;7.30;99.90;;;;;;5076606;28;21027;-80
2021/05/02 02:56:40;;;;;;;62.17;18.03;;;7.30;99.90;;;;;;5095100;28;20517;-78
2021/05/02 02:59:12;;;;;;;66.17;24.77;;;7.40;99.90;;;;;;5096199;28;20877;-80
2021/05/02 03:01:42;;;;;;;64.40;21.43;;;7.50;99.90;;;;;;5095585;28;20505;-80
2021/05/02 03:04:11;;;;;;;62.57;20.63;;;7.40;99.90;;;;;;5095601;28;20446;-80
2021/05/02 03:06:37;;;;;;;69.60;21.87;;;7.40;99.90;;;;;;5088428;28;20453;-80
2021/05/02 03:09:04;;;;;;;63.17;23.53;;;7.40;99.90;;;;;;5076005;28;20447;-79
2021/05/02 03:11:31;;;;;;;62.10;22.97;;;7.40;99.90;;;;;;5080559;28;20476;-80
2021/05/02 03:13:57;;;;;;;64.13;22.13;;;7.40;99.90;;;;;;5095403;28;20830;-79
2021/05/02 03:16:27;;;;;;;61.00;18.20;;;7.40;99.90;;;;;;5095941;28;20474;-79
2021/05/02 03:18:59;;;;;;;66.97;20.67;;;7.40;99.90;;;;;;5095605;28;20514;-80
2021/05/02 03:21:33;;;;;;;60.50;17.67;;;7.30;99.90;;;;;;5095045;28;20981;-79
2021/05/02 03:24:03;;;;;;;60.83;17.90;;;7.30;99.90;;;;;;5085471;28;20568;-79
2021/05/02 03:26:31;;;;;;;64.33;23.57;;;7.30;99.90;;;;;;5075115;28;20997;-79
2021/05/02 03:28:59;;;;;;;60.60;21.90;;;7.30;99.90;;;;;;5084838;28;20481;-79
2021/05/02 03:31:29;;;;;;;61.10;22.80;;;7.20;99.90;;;;;;5096297;28;20470;-79
2021/05/02 03:34:01;;;;;;;60.43;18.70;;;7.20;99.90;;;;;;5098420;28;20480;-79
2021/05/02 03:36:33;;;;;;;60.30;19.03;;;7.20;99.90;;;;;;5095417;28;20487;-78
2021/05/02 03:39:00;;;;;;;63.97;24.50;;;7.10;99.90;;;;;;5095400;28;20474;-79
2021/05/02 03:41:28;;;;;;;65.97;26.57;;;7.10;99.90;;;;;;5094478;28;20557;-78
2021/05/02 03:43:54;;;;;;;60.87;19.50;;;7.10;99.90;;;;;;5095324;28;20552;-79
2021/05/02 03:46:24;;;;;;;59.50;17.07;;;7.10;99.90;;;;;;5081510;28;20511;-79
2021/05/02 03:48:55;;;;;;;58.00;18.03;;;7.30;99.90;;;;;;5081051;28;20457;-80
2021/05/02 03:51:22;;;;;;;59.67;18.90;;;7.30;99.90;;;;;;5073931;28;20475;-80
2021/05/02 03:53:50;;;;;;;60.90;19.10;;;7.30;99.90;;;;;;5074573;28;20518;-79
2021/05/02 03:56:34;;;;;;;58.20;17.90;;;7.30;99.90;;;;;;5087723;28;20450;-80
2021/05/02 03:59:08;;;;;;;55.20;14.37;;;7.30;99.90;;;;;;5094504;28;20506;-78
2021/05/02 04:01:35;;;;;;;60.97;22.13;;;7.30;99.90;;;;;;5094002;28;20560;-80
2021/05/02 04:04:02;;;;;;;64.23;23.80;;;7.40;99.90;;;;;;5093948;28;20533;-79
2021/05/02 04:06:28;;;;;;;64.93;29.10;;;7.40;99.90;;;;;;5094273;28;20526;-79
2021/05/02 04:08:56;;;;;;;68.37;28.13;;;7.40;99.90;;;;;;5095203;28;20549;-84
2021/05/02 04:11:22;;;;;;;57.87;13.10;;;7.50;99.90;;;;;;5098693;28;20569;-84
2021/05/02 04:13:49;;;;;;;59.20;15.30;;;7.50;99.90;;;;;;5097872;28;21079;-83
2021/05/02 04:16:15;;;;;;;64.57;16.60;;;7.50;99.90;;;;;;5098056;28;20458;-83
2021/05/02 04:18:42;;;;;;;71.07;25.03;;;7.50;99.90;;;;;;5094946;28;20514;-80
2021/05/02 04:21:10;;;;;;;62.33;21.00;;;7.50;99.90;;;;;;5079653;28;20486;-79
2021/05/02 04:23:36;;;;;;;61.10;18.27;;;7.50;99.90;;;;;;5078706;28;20455;-81
2021/05/02 04:26:03;;;;;;;63.83;18.03;;;7.50;99.90;;;;;;5078576;28;20885;-81
2021/05/02 04:28:30;;;;;;;59.57;13.20;;;7.50;99.90;;;;;;5078873;28;20832;-81
2021/05/02 04:30:56;;;;;;;61.40;15.60;;;7.50;99.90;;;;;;5078410;28;20462;-82
2021/05/02 04:33:22;;;;;;;58.53;13.83;;;7.50;99.90;;;;;;5076075;28;20593;-83
2021/05/02 04:35:49;;;;;;;59.80;17.20;;;7.40;99.90;;;;;;5085976;28;20496;-83
2021/05/02 04:38:15;;;;;;;59.40;15.43;;;7.40;99.90;;;;;;5097204;28;20554;-82
2021/05/02 04:40:41;;;;;;;59.50;14.90;;;7.50;99.90;;;;;;5097044;28;20536;-81
2021/05/02 04:43:11;;;;;;;61.13;18.10;;;7.50;99.90;;;;;;5096490;28;20453;-81
2021/05/02 04:45:38;;;;;;;59.90;14.47;;;7.40;99.90;;;;;;5097495;28;20478;-83
2021/05/02 04:48:05;;;;;;;62.30;15.77;;;7.50;99.90;;;;;;5097501;28;20800;-82
2021/05/02 04:50:31;;;;;;;58.00;13.00;;;7.60;99.90;;;;;;5087360;28;20641;-82
2021/05/02 04:52:58;;;;;;;59.83;13.70;;;7.70;99.90;;;;;;5090216;28;20482;-82
2021/05/02 04:55:25;;;;;;;60.93;20.73;;;7.60;99.90;;;;;;5077343;28;20912;-81
2021/05/02 04:57:51;;;;;;;61.37;19.70;;;7.60;99.90;;;;;;5076549;28;20573;-82
2021/05/02 05:00:20;;;;;;;61.33;18.57;;;7.50;99.90;;;;;;5076806;28;20526;-82
2021/05/02 05:02:46;;;;;;;64.53;23.50;;;7.50;99.90;;;;;;5075593;28;20562;-82
2021/05/02 05:05:13;;;;;;;55.83;13.80;;;7.50;99.90;;;;;;5076284;28;20542;-81
2021/05/02 05:07:39;;;;;;;60.87;14.93;;;7.60;99.90;;;;;;5075822;28;20479;-81
2021/05/02 05:10:07;;;;;;;54.90;12.77;;;7.50;99.90;;;;;;5087289;28;20451;-82
2021/05/02 05:12:33;;;;;;;63.07;18.90;;;7.60;99.90;;;;;;5075008;28;20550;-81
2021/05/02 05:15:00;;;;;;;56.40;12.90;;;7.50;99.90;;;;;;5075845;28;20588;-80
2021/05/02 05:17:27;;;;;;;58.37;17.97;;;7.50;99.90;;;;;;5088521;28;20909;-83
2021/05/02 05:19:53;;;;;;;61.63;15.87;;;7.50;99.90;;;;;;5083483;28;20541;-82
2021/05/02 05:22:19;;;;;;;57.23;13.33;;;7.40;99.90;;;;;;5092335;28;20919;-82
2021/05/02 05:24:46;;;;;;;57.10;10.57;;;7.50;99.90;;;;;;5094584;28;20457;-81
2021/05/02 05:27:12;;;;;;;53.70;10.03;;;7.60;99.90;;;;;;5094547;28;20545;-81
2021/05/02 05:29:38;;;;;;;55.70;11.23;;;7.60;99.90;;;;;;5084560;28;20475;-82
2021/05/02 05:32:05;;;;;;;57.77;12.80;;;7.70;99.90;;;;;;5105096;28;20556;-83
2021/05/02 05:34:32;;;;;;;54.33;11.20;;;7.70;99.90;;;;;;5095940;28;20481;-81
2021/05/02 05:36:59;;;;;;;53.37;10.63;;;7.70;99.90;;;;;;5077633;28;20510;-83
2021/05/02 05:39:25;;;;;;;53.43;9.80;;;7.70;99.90;;;;;;5077173;28;20493;-80
2021/05/02 05:41:52;;;;;;;58.87;15.00;;;7.80;99.90;;;;;;5091909;28;20492;-79
2021/05/02 05:44:18;;;;;;;56.83;16.10;;;7.80;99.90;;;;;;5098288;28;20464;-81
2021/05/02 05:46:45;;;;;;;59.17;10.77;;;7.70;99.90;;;;;;5093317;28;20533;-82
2021/05/02 05:49:13;;;;;;;56.43;11.70;;;7.80;99.90;;;;;;5098335;28;20539;-81
2021/05/02 05:51:40;;;;;;;56.20;11.67;;;7.90;99.90;;;;;;5096832;28;20511;-82
2021/05/02 05:54:06;;;;;;;56.67;15.50;;;7.90;99.90;;;;;;5092182;28;20667;-83
2021/05/02 05:56:33;;;;;;;70.40;25.77;;;8.00;99.90;;;;;;5083776;28;20808;-82
2021/05/02 05:58:59;;;;;;;162.37;56.13;;;8.00;99.90;;;;;;5087008;28;20520;-82
2021/05/02 06:01:25;;;;;;;74.13;28.77;;;8.00;99.90;;;;;;5091605;28;20526;-81
2021/05/02 06:03:52;;;;;;;56.50;16.07;;;8.00;99.90;;;;;;5085779;28;20549;-82
2021/05/02 06:06:18;;;;;;;53.30;13.90;;;8.00;99.90;;;;;;5087709;28;20537;-82
2021/05/02 06:08:46;;;;;;;202.05;188.00;;;8.10;99.90;;;;;;5086181;28;20433;-82
2021/05/02 06:11:12;;;;;;;75.10;49.60;;;8.00;99.90;;;;;;5091350;28;20311;-79
2021/05/02 06:13:38;;;;;;;79.00;57.30;;;8.10;99.90;;;;;;5084317;28;20788;-80
2021/05/02 06:16:05;;;;;;;70.03;37.73;;;8.10;99.90;;;;;;5088546;28;21036;-81
2021/05/02 06:18:31;;;;;;;58.23;16.40;;;8.30;99.90;;;;;;5096508;28;20529;-81
2021/05/02 06:20:58;;;;;;;60.97;20.90;;;8.30;99.90;;;;;;5094907;28;21027;-81
2021/05/02 06:23:24;;;;;;;78.50;61.13;;;8.20;99.90;;;;;;5095660;28;21013;-80
2021/05/02 06:25:51;;;;;;;65.30;37.53;;;8.40;99.90;;;;;;5088608;28;20538;-80
2021/05/02 06:28:18;;;;;;;68.60;35.07;;;8.40;99.90;;;;;;5076012;28;20443;-81
2021/05/02 06:30:44;;;;;;;75.27;56.50;;;8.60;99.90;;;;;;5088291;28;20534;-81
2021/05/02 06:33:11;;;;;;;72.33;52.93;;;8.60;99.90;;;;;;5078821;28;20459;-81
2021/05/02 06:35:37;;;;;;;74.63;48.07;;;8.70;99.90;;;;;;5076659;28;20539;-80
2021/05/02 06:38:04;;;;;;;69.87;38.80;;;8.90;99.90;;;;;;5076006;28;20475;-81
2021/05/02 06:40:30;;;;;;;58.67;23.00;;;8.90;99.90;;;;;;5076984;28;20451;-81
2021/05/02 06:42:57;;;;;;;78.60;54.60;;;9.10;99.90;;;;;;5075630;28;20479;-80
2021/05/02 06:45:24;;;;;;;94.30;84.23;;;9.00;99.90;;;;;;5092001;28;20456;-79
2021/05/02 06:47:50;;;;;;;57.40;15.37;;;9.20;99.90;;;;;;5096395;28;20521;-80
2021/05/02 06:50:17;;;;;;;76.20;55.90;;;9.30;99.90;;;;;;5093833;28;20487;-81
2021/05/02 06:52:44;;;;;;;80.87;64.27;;;9.50;99.90;;;;;;5077172;28;20471;-81
2021/05/02 06:55:11;;;;;;;72.93;53.00;;;9.70;99.90;;;;;;5092419;28;20456;-82
2021/05/02 06:57:37;;;;;;;70.90;30.30;;;9.90;99.90;;;;;;5096798;28;20583;-81
2021/05/02 07:00:06;;;;;;;115.13;104.60;;;9.90;99.90;;;;;;5078258;28;20493;-84
2021/05/02 07:02:32;;;;;;;198.03;184.63;;;10.00;99.90;;;;;;5077670;28;20524;-83
2021/05/02 07:04:59;;;;;;;77.13;49.23;;;10.20;99.90;;;;;;5089993;28;20807;-81
2021/05/02 07:07:27;;;;;;;158.93;147.27;;;10.50;99.90;;;;;;5089994;28;20481;-81
2021/05/02 07:09:53;;;;;;;101.60;91.20;;;10.60;99.90;;;;;;5097281;28;20480;-82
2021/05/02 07:12:21;;;;;;;419.70;395.47;;;10.90;99.90;;;;;;5094889;28;20910;-82
2021/05/02 07:14:47;;;;;;;385.83;363.87;;;11.00;99.90;;;;;;5076654;28;20447;-81
2021/05/02 07:17:14;;;;;;;458.57;432.67;;;11.10;99.90;;;;;;5076676;28;20918;-82
2021/05/02 07:19:41;;;;;;;193.20;178.53;;;11.00;99.90;;;;;;5076810;28;20546;-82
2021/05/02 07:22:07;;;;;;;1999.90;999.90;;;11.40;99.90;;;;;;5076763;28;20502;-81
2021/05/02 07:24:34;;;;;;;150.27;138.13;;;11.40;99.90;;;;;;5078270;28;20817;-81
2021/05/02 07:27:00;;;;;;;92.00;77.67;;;11.60;99.90;;;;;;5077628;28;20542;-81
2021/05/02 07:29:27;;;;;;;69.57;63.03;;;11.90;99.90;;;;;;5094406;28;20455;-81
2021/05/02 07:31:53;;;;;;;21.80;2.80;;;12.00;99.90;;;;;;5096284;28;20462;-81
2021/05/02 07:34:22;;;;;;;57.97;45.77;;;12.10;99.90;;;;;;5096805;28;20466;-81
2021/05/02 07:36:49;;;;;;;37.53;13.97;;;11.80;99.90;;;;;;5095186;28;20479;-80
2021/05/02 07:39:15;;;;;;;11.47;2.73;;;11.80;99.90;;;;;;5095633;28;20506;-81
2021/05/02 07:41:42;;;;;;;108.30;98.70;;;11.80;99.90;;;;;;5094554;28;20619;-81
2021/05/02 07:44:08;;;;;;;25.33;5.90;;;11.40;99.90;;;;;;5088706;28;20541;-81
2021/05/02 07:46:35;;;;;;;19.83;11.80;;;11.30;99.90;;;;;;5077796;28;20523;-82
2021/05/02 07:49:01;;;;;;;9.60;2.70;;;11.60;99.90;;;;;;5088434;28;20477;-81
2021/05/02 07:51:28;;;;;;;9.93;2.47;;;12.40;99.90;;;;;;5094605;28;20484;-82
2021/05/02 07:53:55;;;;;;;8.90;2.40;;;12.70;99.90;;;;;;5081437;28;20482;-81
2021/05/02 07:56:21;;;;;;;6.20;2.00;;;12.20;99.90;;;;;;5085829;28;20432;-82
2021/05/02 07:58:48;;;;;;;7.73;2.20;;;12.10;99.90;;;;;;5074915;28;20477;-81
2021/05/02 08:01:14;;;;;;;7.23;2.07;;;13.70;99.90;;;;;;5091120;28;20906;-80
2021/05/02 08:03:41;;;;;;;7.10;2.20;;;15.10;99.90;;;;;;5090312;28;20549;-81
2021/05/02 08:06:07;;;;;;;8.63;2.37;;;14.30;99.90;;;;;;5095710;28;20449;-82
2021/05/02 08:08:36;;;;;;;7.20;2.57;;;13.90;99.90;;;;;;5095419;28;20501;-82
2021/05/02 08:11:03;;;;;;;9.27;2.17;;;13.60;99.90;;;;;;5075392;28;20475;-80
2021/05/02 08:13:29;;;;;;;6.83;1.83;;;13.20;99.90;;;;;;5087276;28;20453;-82
2021/05/02 08:15:56;;;;;;;9.83;2.33;;;13.30;99.90;;;;;;5095586;28;21005;-82
2021/05/02 08:18:22;;;;;;;7.40;2.40;;;13.30;99.90;;;;;;5094966;28;20501;-81
2021/05/02 08:20:48;;;;;;;8.67;2.57;;;13.40;99.90;;;;;;5094430;28;20949;-81
2021/05/02 08:23:15;;;;;;;6.73;1.57;;;13.00;99.90;;;;;;5128703;22;20538;-81
2021/05/02 08:25:43;;;;;;;7.60;1.67;;;12.80;99.90;;;;;;5114680;28;20442;-80
2021/05/02 08:28:12;;;;;;;7.20;1.83;;;14.60;99.90;;;;;;5115206;28;20446;-78
2021/05/02 08:30:41;;;;;;;6.87;1.73;;;15.00;99.90;;;;;;5113774;28;20795;-78
2021/05/02 08:33:10;;;;;;;7.40;2.20;;;14.60;99.90;;;;;;5098205;28;20473;-76
2021/05/02 08:35:36;;;;;;;9.43;2.10;;;14.10;99.90;;;;;;5092891;28;20476;-76
2021/05/02 08:38:04;;;;;;;8.57;1.90;;;13.60;99.90;;;;;;5095970;28;21111;-82
2021/05/02 08:40:30;;;;;;;7.93;1.83;;;15.20;99.90;;;;;;5096179;28;20460;-78
2021/05/02 08:43:04;;;;;;;6.70;1.43;;;17.30;99.90;;;;;;5094140;28;20478;-81
2021/05/02 08:45:42;;;;;;;7.77;1.90;;;19.50;99.90;;;;;;5093051;28;20484;-76
2021/05/02 08:48:09;;;;;;;6.33;2.17;;;20.90;99.90;;;;;;5095156;28;20438;-79
2021/05/02 08:50:36;;;;;;;5.83;1.70;;;19.30;95.20;;;;;;5094850;28;20541;-77
2021/05/02 08:53:07;;;;;;;5.97;1.47;;;17.10;96.50;;;;;;5093007;28;20486;-78
2021/05/02 08:55:41;;;;;;;6.57;1.97;;;16.00;97.50;;;;;;5092513;28;20826;-78
2021/05/02 08:58:14;;;;;;;6.70;2.43;;;15.30;98.70;;;;;;5095247;28;20474;-82
2021/05/02 09:00:41;;;;;;;8.20;1.90;;;14.60;99.90;;;;;;5096308;28;20453;-81
2021/05/02 09:03:10;;;;;;;7.20;1.90;;;14.10;99.90;;;;;;5097381;28;20800;-77
2021/05/02 09:05:44;;;;;;;6.43;1.83;;;13.70;99.90;;;;;;5110711;28;20453;-78
2021/05/02 09:08:20;;;;;;;8.90;1.80;;;14.90;99.90;;;;;;5117414;28;20434;-82
2021/05/02 09:10:49;;;;;;;7.10;2.03;;;17.50;99.90;;;;;;5107866;28;20828;-81
2021/05/02 09:13:17;;;;;;;6.50;2.10;;;20.30;98.60;;;;;;5097339;28;20478;-78
2021/05/02 09:15:46;;;;;;;7.03;1.50;;;21.80;93.30;;;;;;5095982;28;20430;-78
2021/05/02 09:18:16;;;;;;;7.40;2.00;;;23.40;90.80;;;;;;5098745;28;20920;-84
2021/05/02 09:20:51;;;;;;;7.20;1.90;;;23.60;84.20;;;;;;5099530;28;20503;-79
2021/05/02 09:23:18;;;;;;;8.17;2.17;;;21.60;78.40;;;;;;5154628;22;20501;-81
2021/05/02 09:25:49;;;;;;;8.07;1.93;;;19.20;79.70;;;;;;5098008;28;20453;-82
2021/05/02 09:28:20;;;;;;;7.43;2.27;;;17.30;83.60;;;;;;5083435;28;20442;-80
2021/05/02 09:31:04;;;;;;;6.67;1.83;;;16.10;88.10;;;;;;5099657;28;20446;-80
2021/05/02 09:33:31;;;;;;;6.80;1.97;;;14.90;89.20;;;;;;5079533;28;20521;-79
2021/05/02 09:35:57;;;;;;;6.97;1.67;;;14.30;92.60;;;;;;5078244;28;21956;-79
2021/05/02 09:38:26;;;;;;;6.90;2.37;;;13.90;96.50;;;;;;5061355;28;20523;-79
2021/05/02 09:40:58;;;;;;;11.70;4.00;;;13.70;96.80;;;;;;5078581;28;20542;-81
2021/05/02 09:43:45;;;;;;;5.90;1.60;;;14.50;98.50;;;;;;5080629;28;20492;-80
2021/05/02 09:46:30;;;;;;;6.47;1.60;;;17.10;94.70;;;;;;5079597;28;20970;-80
2021/05/02 09:48:59;;;;;;;5.17;1.60;;;19.90;92.60;;;;;;5077925;28;20961;-80
2021/05/02 09:51:30;;;;;;;5.33;1.43;;;22.90;89.70;;;;;;5076369;28;20454;-79
2021/05/02 09:54:12;;;;;;;5.83;1.60;;;25.10;79.60;;;;;;5075672;28;20453;-78
2021/05/02 09:56:43;;;;;;;6.40;1.80;;;24.10;69.00;;;;;;5066523;28;20435;-78
2021/05/02 09:59:22;;;;;;;7.77;1.90;;;25.30;67.20;;;;;;5077148;28;20559;-80
2021/05/02 10:02:28;;;;;;;5.77;1.50;;;24.90;60.20;;;;;;5075998;28;20475;-81
2021/05/02 10:04:57;;;;;;;9.37;2.10;;;22.40;59.00;;;;;;5076327;28;20950;-77
2021/05/02 10:07:28;;;;;;;6.90;1.50;;;20.10;62.40;;;;;;5080971;28;20459;-79
2021/05/02 10:09:55;;;;;;;7.03;1.70;;;18.60;65.20;;;;;;5083202;28;20450;-79
2021/05/02 10:12:24;;;;;;;7.70;1.90;;;18.30;67.50;;;;;;5081885;28;20467;-76
2021/05/02 10:14:52;;;;;;;7.20;1.70;;;17.90;69.20;;;;;;5076335;28;20467;-76
2021/05/02 10:17:18;;;;;;;6.10;1.80;;;17.30;66.40;;;;;;5077517;28;20498;-81
2021/05/02 10:19:48;;;;;;;7.40;1.50;;;18.40;67.10;;;;;;5078786;28;20574;-78
2021/05/02 10:22:18;;;;;;;7.10;1.80;;;19.80;67.00;;;;;;5082715;28;20466;-75
2021/05/02 10:24:47;;;;;;;5.37;1.60;;;18.70;65.30;;;;;;5084192;28;20451;-77
2021/05/02 10:27:15;;;;;;;7.13;1.50;;;18.50;66.90;;;;;;5080321;28;20482;-81
2021/05/02 10:29:42;;;;;;;7.30;1.73;;;18.50;66.20;;;;;;5078493;28;20439;-78
2021/05/02 10:32:11;;;;;;;7.43;1.77;;;17.60;66.00;;;;;;5076782;28;20474;-77
2021/05/02 10:34:39;;;;;;;6.83;1.47;;;16.60;66.90;;;;;;5079953;28;20473;-79
2021/05/02 10:37:35;;;;;;;6.83;1.80;;;15.80;70.20;;;;;;5083590;28;20447;-79
2021/05/02 10:40:29;;;;;;;7.27;1.80;;;14.90;71.40;;;;;;5084895;28;20449;-79
2021/05/02 10:48:08;;;;;;;5.43;1.90;;;13.30;75.80;;;;;;3208591;26;20481;-79
2021/05/02 10:50:35;;;;;;;7.27;1.80;;;13.20;79.40;;;;;;5098613;28;20449;-79
2021/05/02 10:53:03;;;;;;;5.47;1.47;;;13.10;82.30;;;;;;5095939;28;20480;-81
2021/05/02 10:55:47;;;;;;;6.60;1.80;;;13.10;82.80;;;;;;5096115;28;20966;-78
2021/05/02 10:58:26;;;;;;;6.27;1.20;;;13.40;85.20;;;;;;5091465;28;20482;-82
2021/05/02 11:00:57;;;;;;;6.43;1.37;;;14.20;85.10;;;;;;5095993;28;20442;-76
2021/05/02 11:03:52;;;;;;;5.40;1.80;;;14.60;73.90;;;;;;5096983;28;20467;-79
2021/05/02 11:06:52;;;;;;;5.63;1.43;;;14.50;75.60;;;;;;5067124;28;20485;-79
2021/05/02 11:09:20;;;;;;;6.37;1.70;;;14.20;76.60;;;;;;5089346;28;20438;-78
2021/05/02 11:11:50;;;;;;;5.40;1.47;;;13.90;77.80;;;;;;5094004;28;21023;-76
2021/05/02 11:14:36;;;;;;;5.50;1.50;;;13.80;79.20;;;;;;5092970;28;20537;-78
2021/05/02 11:17:22;;;;;;;6.73;1.90;;;13.90;79.90;;;;;;5095773;28;20438;-81
2021/05/02 11:19:53;;;;;;;5.20;1.30;;;15.40;82.20;;;;;;5096980;28;20489;-79
2021/05/02 11:22:21;;;;;;;6.63;1.50;;;15.70;76.40;;;;;;5094401;28;20494;-77
2021/05/02 11:24:58;;;;;;;5.13;1.47;;;16.00;73.00;;;;;;5094512;28;20857;-77
2021/05/02 11:27:43;;;;;;;9.67;1.87;;;15.60;78.90;;;;;;5096856;28;20985;-82
2021/05/02 11:30:18;;;;;;;8.83;1.67;;;15.00;73.60;;;;;;5093558;28;20453;-79
2021/05/02 11:32:48;;;;;;;6.90;1.57;;;14.40;76.90;;;;;;5100551;22;20495;-79
2021/05/02 11:35:19;;;;;;;7.10;1.50;;;14.30;76.90;;;;;;5094073;28;20487;-78
2021/05/02 11:37:53;;;;;;;6.00;1.37;;;14.10;76.30;;;;;;5095338;28;20452;-80
2021/05/02 11:40:37;;;;;;;5.20;1.33;;;14.10;74.70;;;;;;5094741;28;20518;-81
2021/05/02 11:43:06;;;;;;;6.77;1.20;;;15.40;82.60;;;;;;5096269;28;20459;-80
2021/05/02 11:45:41;;;;;;;5.77;1.27;;;18.10;75.60;;;;;;5075474;28;20450;-79
2021/05/02 11:48:20;;;;;;;6.33;1.23;;;18.30;73.80;;;;;;5073535;28;20438;-80
2021/05/02 11:50:48;;;;;;;7.30;1.63;;;17.70;67.70;;;;;;5072944;28;20508;-79
2021/05/02 11:53:40;;;;;;;6.27;1.40;;;17.30;69.80;;;;;;5073832;28;20467;-77
2021/05/02 11:56:19;;;;;;;6.67;1.30;;;16.50;69.60;;;;;;5073392;28;20465;-80
2021/05/02 11:58:51;;;;;;;6.00;1.33;;;16.00;66.40;;;;;;5075115;28;21121;-78
2021/05/02 12:01:21;;;;;;;7.17;1.80;;;15.40;70.00;;;;;;5073881;28;20447;-79
2021/05/02 12:03:49;;;;;;;6.43;1.30;;;15.10;70.40;;;;;;5076042;28;20482;-79
2021/05/02 12:06:31;;;;;;;5.50;1.13;;;14.90;70.90;;;;;;5084249;28;20949;-80
2021/05/02 12:09:01;;;;;;;8.47;2.30;;;14.80;71.30;;;;;;5085617;28;20458;-79
2021/05/02 12:11:29;;;;;;;5.77;1.10;;;14.40;70.20;;;;;;5073107;28;20834;-78
2021/05/02 12:13:56;;;;;;;7.00;2.33;;;14.40;71.60;;;;;;5073631;28;20450;-79
2021/05/02 12:16:24;;;;;;;6.50;1.50;;;14.30;72.80;;;;;;5073274;28;20448;-79
2021/05/02 12:19:07;;;;;;;5.80;1.60;;;14.10;70.00;;;;;;5072971;28;20515;-80
2021/05/02 12:21:39;;;;;;;7.10;1.50;;;14.40;73.50;;;;;;5078144;28;20451;-77
2021/05/02 12:24:13;;;;;;;6.20;1.60;;;14.50;70.90;;;;;;5085497;28;20430;-78
2021/05/02 12:26:47;;;;;;;10.20;2.23;;;14.90;75.40;;;;;;5093520;28;20506;-80
2021/05/02 12:29:17;;;;;;;6.40;1.33;;;15.20;72.40;;;;;;5093058;28;20950;-82
2021/05/02 12:31:51;;;;;;;6.17;1.47;;;15.20;70.30;;;;;;5092106;28;20494;-77
2021/05/02 12:37:07;;;;;;;6.70;1.70;;;14.50;71.00;;;;;;5095410;28;20931;-84
2021/05/02 12:39:35;;;;;;;6.80;1.53;;;14.10;71.20;;;;;;5114970;28;20478;-81
2021/05/02 12:42:03;;;;;;;5.37;1.40;;;13.60;72.20;;;;;;5097685;28;20553;-79
2021/05/02 12:44:42;;;;;;;8.77;1.50;;;13.20;76.20;;;;;;5097549;28;20457;-76
2021/05/02 12:47:17;;;;;;;6.90;1.67;;;12.90;75.70;;;;;;5097749;28;20455;-81
2021/05/02 12:49:51;;;;;;;5.30;1.53;;;12.90;76.40;;;;;;5095291;28;20466;-78
2021/05/02 12:52:19;;;;;;;6.33;2.47;;;12.80;75.70;;;;;;5098506;28;20465;-78
2021/05/02 12:54:47;;;;;;;8.13;3.20;;;13.00;79.00;;;;;;5076934;28;20446;-77
2021/05/02 12:57:17;;;;;;;6.83;1.77;;;13.20;79.20;;;;;;5076730;28;20500;-80